createdAt,value
2023-01-22T00:01:01.372Z,87.61
2023-01-22T00:03:28.143Z,87.55
2023-01-22T00:05:55.126Z,87.66
2023-01-22T00:08:22.031Z,87.50
2023-01-22T00:10:49.830Z,88.10
2023-01-22T00:13:18.199Z,87.97
2023-01-22T00:15:45.046Z,88.36
2023-01-22T00:18:11.922Z,88.41
2023-01-22T00:20:41.444Z,88.68
2023-01-22T00:23:08.396Z,88.23
2023-01-22T00:25:35.162Z,88.61
2023-01-22T00:28:02.117Z,89.28
2023-01-22T00:30:30.529Z,88.97
2023-01-22T00:32:57.536Z,89.04
2023-01-22T00:35:25.301Z,88.38
2023-01-22T00:37:52.233Z,88.79
2023-01-22T00:40:19.564Z,89.06
2023-01-22T00:42:47.024Z,88.81
2023-01-22T00:45:15.008Z,89.07
2023-01-22T00:47:43.352Z,89.00
2023-01-22T00:50:11.669Z,89.13
2023-01-22T00:52:38.918Z,89.40
2023-01-22T00:55:09.484Z,89.11
2023-01-22T00:57:43.823Z,89.12
2023-01-22T01:00:13.458Z,89.55
2023-01-22T01:02:40.669Z,89.68
2023-01-22T01:05:09.504Z,89.69
2023-01-22T01:07:36.457Z,89.61
2023-01-22T01:10:03.439Z,89.57
2023-01-22T01:12:30.273Z,89.78
2023-01-22T01:14:57.084Z,90.20
2023-01-22T01:17:23.843Z,90.32
2023-01-22T01:19:51.351Z,90.35
2023-01-22T01:22:19.593Z,89.92
2023-01-22T01:24:46.431Z,90.42
2023-01-22T01:27:13.191Z,90.57
2023-01-22T01:29:39.905Z,90.24
2023-01-22T01:32:06.647Z,90.10
2023-01-22T01:34:33.377Z,89.78
2023-01-22T01:37:00.209Z,90.48
2023-01-22T01:39:28.417Z,90.82
2023-01-22T01:41:55.092Z,90.99
2023-01-22T01:44:23.436Z,90.48
2023-01-22T01:46:53.055Z,90.61
2023-01-22T01:49:30.820Z,90.74
2023-01-22T01:52:01.961Z,90.91
2023-01-22T01:54:31.078Z,90.70
2023-01-22T01:57:04.125Z,91.11
2023-01-22T01:59:31.697Z,91.04
2023-01-22T02:01:58.441Z,91.05
2023-01-22T02:04:28.205Z,91.04
2023-01-22T02:06:55.036Z,90.92
2023-01-22T02:09:22.250Z,90.73
2023-01-22T02:11:53.253Z,91.16
2023-01-22T02:14:23.954Z,91.59
2023-01-22T02:17:00.267Z,91.86
2023-01-22T02:19:27.022Z,91.88
2023-01-22T02:21:55.218Z,91.78
2023-01-22T02:24:23.145Z,91.81
2023-01-22T02:26:50.412Z,91.88
2023-01-22T02:29:17.614Z,91.73
2023-01-22T02:31:45.010Z,91.58
2023-01-22T02:34:12.900Z,91.99
2023-01-22T02:36:40.369Z,92.28
2023-01-22T02:39:08.693Z,92.29
2023-01-22T02:41:38.270Z,92.56
2023-01-22T02:44:05.887Z,92.54
2023-01-22T02:46:32.820Z,92.66
2023-01-22T02:48:59.897Z,92.31
2023-01-22T02:51:26.620Z,92.08
2023-01-22T02:53:54.195Z,92.50
2023-01-22T02:56:22.870Z,92.88
2023-01-22T02:58:50.063Z,92.43
2023-01-22T03:01:19.728Z,92.57
2023-01-22T03:03:47.227Z,92.62
2023-01-22T03:06:14.209Z,92.44
2023-01-22T03:08:41.584Z,92.83
2023-01-22T03:11:08.370Z,92.90
2023-01-22T03:13:36.493Z,92.58
2023-01-22T03:16:04.111Z,92.40
2023-01-22T03:18:32.159Z,92.97
2023-01-22T03:20:59.342Z,92.79
2023-01-22T03:23:26.452Z,92.88
2023-01-22T03:25:56.545Z,92.90
2023-01-22T03:28:23.419Z,93.36
2023-01-22T03:30:52.333Z,93.24
2023-01-22T03:33:19.533Z,93.49
2023-01-22T03:35:49.524Z,93.85
2023-01-22T03:38:16.483Z,93.51
2023-01-22T03:40:44.406Z,93.22
2023-01-22T03:43:11.503Z,93.90
2023-01-22T03:45:39.483Z,93.52
2023-01-22T03:48:07.690Z,93.32
2023-01-22T03:50:35.107Z,94.00
2023-01-22T03:53:02.095Z,94.00
2023-01-22T03:55:28.847Z,93.55
2023-01-22T03:57:56.130Z,93.75
2023-01-22T04:00:23.480Z,93.60
2023-01-22T04:02:50.289Z,93.20
2023-01-22T04:05:18.934Z,93.00
2023-01-22T04:07:45.957Z,93.17
2023-01-22T04:10:12.651Z,93.37
2023-01-22T04:12:39.466Z,93.91
2023-01-22T04:15:10.617Z,93.29
2023-01-22T04:17:37.222Z,93.73
2023-01-22T04:20:04.855Z,93.37
2023-01-22T04:22:33.753Z,93.59
2023-01-22T04:25:00.453Z,93.41
2023-01-22T04:27:27.416Z,93.55
2023-01-22T04:29:54.269Z,93.41
2023-01-22T04:32:21.234Z,93.79
2023-01-22T04:34:48.028Z,92.77
2023-01-22T04:37:14.998Z,92.53
2023-01-22T04:39:43.172Z,92.95
2023-01-22T04:42:10.885Z,92.74
2023-01-22T04:44:38.215Z,92.35
2023-01-22T04:47:05.111Z,92.95
2023-01-22T04:49:32.113Z,92.37
2023-01-22T04:51:59.672Z,92.35
2023-01-22T04:54:26.684Z,92.38
2023-01-22T04:57:00.263Z,92.35
2023-01-22T04:59:29.328Z,92.79
2023-01-22T05:02:03.449Z,92.59
2023-01-22T05:04:30.998Z,92.29
2023-01-22T05:07:00.593Z,92.10
2023-01-22T05:09:30.968Z,92.34
2023-01-22T05:12:02.055Z,91.87
2023-01-22T05:14:28.848Z,92.78
2023-01-22T05:16:55.623Z,92.17
2023-01-22T05:19:22.385Z,92.12
2023-01-22T05:21:49.191Z,92.29
2023-01-22T05:24:15.956Z,92.43
2023-01-22T05:26:42.965Z,92.54
2023-01-22T05:29:11.619Z,92.48
2023-01-22T05:31:38.522Z,92.55
2023-01-22T05:34:05.405Z,91.55
2023-01-22T05:36:32.372Z,92.17
2023-01-22T05:38:59.141Z,92.13
2023-01-22T05:41:26.077Z,91.86
2023-01-22T05:43:52.928Z,92.53
2023-01-22T05:46:21.208Z,91.61
2023-01-22T05:48:48.050Z,92.02
2023-01-22T05:51:14.952Z,91.91
2023-01-22T05:53:41.715Z,91.91
2023-01-22T05:56:10.246Z,92.26
2023-01-22T05:58:37.135Z,92.27
2023-01-22T06:01:04.638Z,91.86
2023-01-22T06:03:32.986Z,92.65
2023-01-22T06:06:00.354Z,92.79
2023-01-22T06:08:27.876Z,92.71
2023-01-22T06:10:59.769Z,92.13
2023-01-22T06:13:26.689Z,92.56
2023-01-22T06:15:53.745Z,92.18
2023-01-22T06:18:22.101Z,92.09
2023-01-22T06:20:50.639Z,92.06
2023-01-22T06:23:17.878Z,91.36
2023-01-22T06:25:51.566Z,91.74
2023-01-22T06:28:18.550Z,91.85
2023-01-22T06:30:45.745Z,91.17
2023-01-22T06:33:15.021Z,91.36
2023-01-22T06:35:43.820Z,91.97
2023-01-22T06:38:12.112Z,91.78
2023-01-22T06:40:39.255Z,91.55
2023-01-22T06:43:06.664Z,91.27
2023-01-22T06:45:33.720Z,91.44
2023-01-22T06:48:00.498Z,91.37
2023-01-22T06:50:30.772Z,92.10
2023-01-22T06:52:57.510Z,91.83
2023-01-22T06:55:25.866Z,91.30
2023-01-22T06:57:54.627Z,91.61
2023-01-22T07:00:24.824Z,91.42
2023-01-22T07:02:52.055Z,91.25
2023-01-22T07:05:18.897Z,91.29
2023-01-22T07:07:45.998Z,92.32
2023-01-22T07:10:13.838Z,91.36
2023-01-22T07:12:43.630Z,91.75
2023-01-22T07:15:13.483Z,91.23
2023-01-22T07:17:40.484Z,91.88
2023-01-22T07:20:08.263Z,91.74
2023-01-22T07:22:35.042Z,91.30
2023-01-22T07:25:02.380Z,91.58
2023-01-22T07:27:29.814Z,91.46
2023-01-22T07:29:59.522Z,92.15
2023-01-22T07:32:26.408Z,92.06
2023-01-22T07:34:53.333Z,92.06
2023-01-22T07:37:20.061Z,92.27
2023-01-22T07:39:47.049Z,92.42
2023-01-22T07:42:14.186Z,92.14
2023-01-22T07:44:40.926Z,92.70
2023-01-22T07:47:12.276Z,92.04
2023-01-22T07:49:39.343Z,92.65
2023-01-22T07:52:16.862Z,92.72
2023-01-22T07:54:43.790Z,92.40
2023-01-22T07:57:10.689Z,92.33
2023-01-22T07:59:37.526Z,91.83
2023-01-22T08:02:04.390Z,92.35
2023-01-22T08:04:32.843Z,92.83
2023-01-22T08:06:59.703Z,92.46
2023-01-22T08:09:26.370Z,92.59
2023-01-22T08:11:53.652Z,92.71
2023-01-22T08:14:20.512Z,92.62
2023-01-22T08:16:47.725Z,92.83
2023-01-22T08:19:14.860Z,92.76
2023-01-22T08:21:43.286Z,93.13
2023-01-22T08:24:10.337Z,92.62
2023-01-22T08:26:37.336Z,92.43
2023-01-22T08:29:07.789Z,92.09
2023-01-22T08:31:35.073Z,92.66
2023-01-22T08:34:02.155Z,92.24
2023-01-22T08:36:29.062Z,92.46
2023-01-22T08:38:57.268Z,92.30
2023-01-22T08:41:24.777Z,92.52
2023-01-22T08:43:52.228Z,92.45
2023-01-22T08:46:20.051Z,92.26
2023-01-22T08:48:47.240Z,92.38
2023-01-22T08:51:14.352Z,92.19
2023-01-22T08:53:41.421Z,92.19
2023-01-22T08:56:10.094Z,92.58
2023-01-22T08:58:37.258Z,92.86
2023-01-22T09:01:04.558Z,92.26
2023-01-22T09:03:31.685Z,92.18
2023-01-22T09:05:58.964Z,92.29
2023-01-22T09:08:26.177Z,92.46
2023-01-22T09:10:52.946Z,92.34
2023-01-22T09:13:21.196Z,92.13
2023-01-22T09:15:48.071Z,92.06
2023-01-22T09:18:14.907Z,91.87
2023-01-22T09:20:41.791Z,91.61
2023-01-22T09:23:09.032Z,91.67
2023-01-22T09:25:36.168Z,91.35
2023-01-22T09:28:11.860Z,91.66
2023-01-22T09:30:40.083Z,91.71
2023-01-22T09:33:07.389Z,91.56
2023-01-22T09:35:34.318Z,91.48
2023-01-22T09:38:01.355Z,91.28
2023-01-22T09:40:31.385Z,91.36
2023-01-22T09:43:04.255Z,91.47
2023-01-22T09:45:34.071Z,91.67
2023-01-22T09:48:11.639Z,91.07
2023-01-22T09:50:39.090Z,91.33
2023-01-22T09:53:11.677Z,91.11
2023-01-22T09:55:44.766Z,91.22
2023-01-22T09:58:18.418Z,91.26
2023-01-22T10:00:50.863Z,91.58
2023-01-22T10:03:24.826Z,91.12
2023-01-22T10:05:56.969Z,92.13
2023-01-22T10:08:26.355Z,91.96
2023-01-22T10:10:53.828Z,92.07
2023-01-22T10:13:22.300Z,92.14
2023-01-22T10:15:51.602Z,91.42
2023-01-22T10:18:29.632Z,91.10
2023-01-22T10:21:00.697Z,91.69
2023-01-22T10:23:28.057Z,91.46
2023-01-22T10:25:59.949Z,92.04
2023-01-22T10:28:28.752Z,92.00
2023-01-22T10:30:55.884Z,91.91
2023-01-22T10:33:23.536Z,91.77
2023-01-22T10:35:53.824Z,91.19
2023-01-22T10:38:22.950Z,91.25
2023-01-22T10:40:54.567Z,90.88
2023-01-22T10:43:31.702Z,90.87
2023-01-22T10:46:04.799Z,90.61
2023-01-22T10:48:33.312Z,90.78
2023-01-22T10:51:11.496Z,91.12
2023-01-22T10:53:44.344Z,90.38
2023-01-22T10:56:13.134Z,90.63
2023-01-22T10:58:47.473Z,90.55
2023-01-22T11:01:31.473Z,90.18
2023-01-22T11:03:58.167Z,90.20
2023-01-22T11:06:39.590Z,90.56
2023-01-22T11:09:08.307Z,90.41
2023-01-22T11:11:39.094Z,90.69
2023-01-22T11:14:13.525Z,89.74
2023-01-22T11:16:45.567Z,90.09
2023-01-22T11:19:14.231Z,89.86
2023-01-22T11:21:46.412Z,90.67
2023-01-22T11:24:17.153Z,90.01
2023-01-22T11:27:03.090Z,89.98
2023-01-22T11:30:01.974Z,89.47
2023-01-22T11:33:14.467Z,89.76
2023-01-22T11:35:47.885Z,89.98
2023-01-22T11:38:43.068Z,89.83
2023-01-22T11:41:35.040Z,89.89
2023-01-22T11:44:37.712Z,89.65
2023-01-22T11:47:34.510Z,89.69
2023-01-22T11:50:24.531Z,89.51
2023-01-22T11:53:02.030Z,89.89
2023-01-22T11:55:48.297Z,89.67
2023-01-22T11:58:25.773Z,88.72
2023-01-22T12:01:07.880Z,89.35
2023-01-22T12:04:00.277Z,89.33
2023-01-22T12:06:45.907Z,89.07
2023-01-22T12:09:22.091Z,89.28
2023-01-22T12:12:27.111Z,89.73
2023-01-22T12:15:06.586Z,89.19
2023-01-22T12:17:47.118Z,89.05
2023-01-22T12:20:35.642Z,88.52
2023-01-22T12:23:08.660Z,89.12
2023-01-22T12:25:41.948Z,89.87
2023-01-22T12:28:16.567Z,89.34
2023-01-22T12:30:50.930Z,89.65
2023-01-22T12:33:22.615Z,89.94
2023-01-22T12:35:51.804Z,90.57
2023-01-22T12:38:31.445Z,90.09
2023-01-22T12:41:21.537Z,89.72
2023-01-22T12:43:55.408Z,90.68
2023-01-22T12:46:33.550Z,90.76
2023-01-22T12:49:06.083Z,90.40
2023-01-22T12:51:51.129Z,91.31
2023-01-22T12:54:20.682Z,90.93
2023-01-22T12:56:48.409Z,91.06
2023-01-22T12:59:42.364Z,91.32
2023-01-22T13:02:40.219Z,91.22
2023-01-22T13:05:16.906Z,90.96
2023-01-22T13:07:44.183Z,90.69
2023-01-22T13:10:25.028Z,90.51
2023-01-22T13:12:55.360Z,90.61
2023-01-22T13:15:26.734Z,91.00
2023-01-22T13:18:06.495Z,91.42
2023-01-22T13:20:36.467Z,91.11
2023-01-22T13:23:06.175Z,90.62
2023-01-22T13:25:33.947Z,90.84
2023-01-22T13:28:01.676Z,90.92
2023-01-22T13:30:31.043Z,91.77
2023-01-22T13:33:07.061Z,91.18
2023-01-22T13:35:36.240Z,91.09
2023-01-22T13:38:03.817Z,91.83
2023-01-22T13:40:42.683Z,91.34
2023-01-22T13:43:17.185Z,91.99
2023-01-22T13:45:46.203Z,91.51
2023-01-22T13:48:16.917Z,91.71
2023-01-22T13:50:47.575Z,92.49
2023-01-22T13:53:26.957Z,92.35
2023-01-22T13:55:55.827Z,91.61
2023-01-22T13:58:47.302Z,92.20
2023-01-22T14:01:28.506Z,91.83
2023-01-22T14:03:59.828Z,92.34
2023-01-22T14:06:29.014Z,92.82
2023-01-22T14:08:57.817Z,92.05
2023-01-22T14:11:24.734Z,92.25
2023-01-22T14:13:55.866Z,92.08
2023-01-22T14:16:24.176Z,92.24
2023-01-22T14:18:53.073Z,92.34
2023-01-22T14:21:20.192Z,92.65
2023-01-22T14:23:48.115Z,92.70
2023-01-22T14:26:15.542Z,93.02
2023-01-22T14:28:42.369Z,91.92
2023-01-22T14:31:12.240Z,92.78
2023-01-22T14:33:40.653Z,93.55
2023-01-22T14:36:08.632Z,92.69
2023-01-22T14:38:35.568Z,92.88
2023-01-22T14:41:04.196Z,92.91
2023-01-22T14:43:31.214Z,92.88
2023-01-22T14:46:00.459Z,93.28
2023-01-22T14:48:27.669Z,92.69
2023-01-22T14:50:56.390Z,92.58
2023-01-22T14:53:23.280Z,92.85
2023-01-22T14:55:53.476Z,92.93
2023-01-22T14:58:20.286Z,93.89
2023-01-22T15:00:47.029Z,93.79
2023-01-22T15:03:14.053Z,93.24
2023-01-22T15:05:40.938Z,93.29
2023-01-22T15:08:10.338Z,93.46
2023-01-22T15:10:37.354Z,93.82
2023-01-22T15:13:04.267Z,94.42
2023-01-22T15:15:31.013Z,94.30
2023-01-22T15:17:58.066Z,94.54
2023-01-22T15:20:25.209Z,94.21
2023-01-22T15:22:52.320Z,94.63
2023-01-22T15:25:20.943Z,94.62
2023-01-22T15:27:47.708Z,95.19
2023-01-22T15:30:15.220Z,95.25
2023-01-22T15:32:42.551Z,96.07
2023-01-22T15:35:10.375Z,96.32
2023-01-22T15:37:37.493Z,96.14
2023-01-22T15:40:05.441Z,95.65
2023-01-22T15:42:33.968Z,95.69
2023-01-22T15:45:00.825Z,96.00
2023-01-22T15:47:27.684Z,95.36
2023-01-22T15:49:54.711Z,95.76
2023-01-22T15:52:21.549Z,95.45
2023-01-22T15:54:48.417Z,95.71
2023-01-22T15:57:17.715Z,96.54
2023-01-22T15:59:45.973Z,96.38
2023-01-22T16:02:13.290Z,96.57
2023-01-22T16:04:40.212Z,96.04
2023-01-22T16:07:07.037Z,97.77
2023-01-22T16:09:35.039Z,96.92
2023-01-22T16:12:02.137Z,97.73
2023-01-22T16:14:29.466Z,97.13
2023-01-22T16:16:57.671Z,96.98
2023-01-22T16:19:24.721Z,96.62
2023-01-22T16:21:53.475Z,96.55
2023-01-22T16:24:20.274Z,97.85
2023-01-22T16:26:47.166Z,97.55
2023-01-22T16:29:17.185Z,97.27
2023-01-22T16:31:44.206Z,96.45
2023-01-22T16:34:14.733Z,96.69
2023-01-22T16:36:42.821Z,96.47
2023-01-22T16:39:16.204Z,96.84
2023-01-22T16:41:43.030Z,96.56
2023-01-22T16:44:12.196Z,96.64
2023-01-22T16:46:41.204Z,96.44
2023-01-22T16:49:12.132Z,97.03
2023-01-22T16:51:42.413Z,97.63
2023-01-22T16:54:17.859Z,96.45
2023-01-22T16:56:44.859Z,96.75
2023-01-22T16:59:15.547Z,96.71
2023-01-22T17:01:44.138Z,97.04
2023-01-22T17:04:11.285Z,97.19
2023-01-22T17:06:42.840Z,96.50
2023-01-22T17:09:14.321Z,96.35
2023-01-22T17:11:41.396Z,96.64
2023-01-22T17:14:08.188Z,96.32
2023-01-22T17:16:35.637Z,97.03
2023-01-22T17:19:02.489Z,97.00
2023-01-22T17:21:30.470Z,97.40
2023-01-22T17:23:59.018Z,96.33
2023-01-22T17:26:27.074Z,97.10
2023-01-22T17:28:55.477Z,96.79
2023-01-22T17:31:25.769Z,96.90
2023-01-22T17:33:53.175Z,96.19
2023-01-22T17:36:19.916Z,96.29
2023-01-22T17:38:47.781Z,96.49
2023-01-22T17:41:18.052Z,97.23
2023-01-22T17:43:49.038Z,96.82
2023-01-22T17:46:17.449Z,96.26
2023-01-22T17:48:45.234Z,97.29
2023-01-22T17:51:14.335Z,96.91
2023-01-22T17:53:42.753Z,96.93
2023-01-22T17:56:12.843Z,97.52
2023-01-22T17:58:42.995Z,97.75
2023-01-22T18:01:11.753Z,97.72
2023-01-22T18:03:41.039Z,97.56
2023-01-22T18:06:08.352Z,97.54
2023-01-22T18:08:36.791Z,98.02
2023-01-22T18:11:06.348Z,96.78
2023-01-22T18:13:33.938Z,97.86
2023-01-22T18:16:02.893Z,97.82
2023-01-22T18:18:29.895Z,97.69
2023-01-22T18:20:59.133Z,97.03
2023-01-22T18:23:26.514Z,97.58
2023-01-22T18:25:53.713Z,96.58
2023-01-22T18:28:20.599Z,97.22
2023-01-22T18:30:51.349Z,97.65
2023-01-22T18:33:20.822Z,97.72
2023-01-22T18:35:49.784Z,97.44
2023-01-22T18:38:17.331Z,97.38
2023-01-22T18:40:44.628Z,97.02
2023-01-22T18:43:11.563Z,97.91
2023-01-22T18:45:41.142Z,97.28
2023-01-22T18:48:12.731Z,97.15
2023-01-22T18:50:41.897Z,97.28
2023-01-22T18:53:09.962Z,97.36
2023-01-22T18:55:37.029Z,97.16
2023-01-22T18:58:33.512Z,97.19
2023-01-22T19:01:09.138Z,97.63
2023-01-22T19:03:36.392Z,97.44
2023-01-22T19:06:06.573Z,96.71
2023-01-22T19:08:33.519Z,97.30
2023-01-22T19:11:02.547Z,97.44
2023-01-22T19:13:29.318Z,97.54
2023-01-22T19:16:01.842Z,96.95
2023-01-22T19:18:29.577Z,97.57
2023-01-22T19:21:03.347Z,97.87
2023-01-22T19:23:34.985Z,97.50
2023-01-22T19:26:06.607Z,98.04
2023-01-22T19:28:35.670Z,97.93
2023-01-22T19:31:02.729Z,98.46
2023-01-22T19:33:33.406Z,98.25
2023-01-22T19:36:03.827Z,97.95
2023-01-22T19:38:33.821Z,98.37
2023-01-22T19:41:01.923Z,98.78
2023-01-22T19:43:28.768Z,98.17
2023-01-22T19:46:04.569Z,97.96
2023-01-22T19:48:31.504Z,97.79
2023-01-22T19:51:01.949Z,97.36
2023-01-22T19:53:36.769Z,97.65
2023-01-22T19:56:16.102Z,97.76
2023-01-22T19:58:43.032Z,97.65
2023-01-22T20:01:10.905Z,97.75
2023-01-22T20:03:38.371Z,97.44
2023-01-22T20:06:06.232Z,98.04
2023-01-22T20:08:35.328Z,97.69
2023-01-22T20:11:19.539Z,97.31
2023-01-22T20:13:52.677Z,97.89
2023-01-22T20:16:24.186Z,97.54
2023-01-22T20:18:52.472Z,97.45
2023-01-22T20:21:20.755Z,97.68
2023-01-22T20:23:52.953Z,97.55
2023-01-22T20:26:21.216Z,97.60
2023-01-22T20:28:51.222Z,97.98
2023-01-22T20:31:24.091Z,97.32
2023-01-22T20:33:54.554Z,97.42
2023-01-22T20:36:29.156Z,97.44
2023-01-22T20:39:00.669Z,97.39
2023-01-22T20:41:27.783Z,97.57
2023-01-22T20:43:57.808Z,98.31
2023-01-22T20:46:27.569Z,98.64
2023-01-22T20:48:57.463Z,97.85
2023-01-22T20:51:26.862Z,97.54
2023-01-22T20:53:55.272Z,98.18
2023-01-22T20:56:26.114Z,98.11
2023-01-22T20:58:58.196Z,97.84
2023-01-22T21:01:26.033Z,97.38
2023-01-22T21:03:54.632Z,97.73
2023-01-22T21:06:22.101Z,97.95
2023-01-22T21:08:53.395Z,98.10
2023-01-22T21:11:20.696Z,98.77
2023-01-22T21:13:51.433Z,98.04
2023-01-22T21:16:21.601Z,98.04
2023-01-22T21:18:50.604Z,97.94
2023-01-22T21:21:19.362Z,97.72
2023-01-22T21:23:50.379Z,98.05
2023-01-22T21:26:21.027Z,98.19
2023-01-22T21:28:49.589Z,98.41
2023-01-22T21:31:18.518Z,98.34
2023-01-22T21:33:51.243Z,98.15
2023-01-22T21:36:19.949Z,97.66
2023-01-22T21:38:47.175Z,98.30
2023-01-22T21:41:41.622Z,98.56
2023-01-22T21:44:15.134Z,97.99
2023-01-22T21:46:43.734Z,98.79
2023-01-22T21:49:12.885Z,99.28
2023-01-22T21:51:39.692Z,98.59
2023-01-22T21:54:06.655Z,98.88
2023-01-22T21:56:34.109Z,98.44
2023-01-22T21:59:01.100Z,98.79
2023-01-22T22:01:29.485Z,98.98
2023-01-22T22:03:59.774Z,98.47
2023-01-22T22:06:28.380Z,98.73
2023-01-22T22:08:55.280Z,97.71
2023-01-22T22:11:22.390Z,99.12
2023-01-22T22:13:49.298Z,98.85
2023-01-22T22:16:16.314Z,98.62
2023-01-22T22:18:44.555Z,98.05
2023-01-22T22:21:12.364Z,98.36
2023-01-22T22:23:40.175Z,98.01
2023-01-22T22:26:08.151Z,98.16
2023-01-22T22:28:35.683Z,97.85
2023-01-22T22:31:04.875Z,97.92
2023-01-22T22:33:31.755Z,97.80
2023-01-22T22:36:00.402Z,97.75
2023-01-22T22:38:27.484Z,97.58
2023-01-22T22:40:58.837Z,97.72
2023-01-22T22:43:25.809Z,97.78
2023-01-22T22:45:53.049Z,98.44
2023-01-22T22:48:19.845Z,97.80
2023-01-22T22:50:46.973Z,97.89
2023-01-22T22:53:15.270Z,97.73
2023-01-22T22:55:42.332Z,97.80
2023-01-22T22:58:09.630Z,97.94
2023-01-22T23:00:36.720Z,97.58
2023-01-22T23:03:03.614Z,97.98
2023-01-22T23:05:36.428Z,97.61
2023-01-22T23:08:04.039Z,98.03
2023-01-22T23:10:32.404Z,98.19
2023-01-22T23:13:01.466Z,98.11
2023-01-22T23:15:30.295Z,98.37
2023-01-22T23:17:58.520Z,98.24
2023-01-22T23:20:27.364Z,97.45
2023-01-22T23:22:55.032Z,97.70
2023-01-22T23:25:21.821Z,98.09
2023-01-22T23:27:50.309Z,97.43
2023-01-22T23:30:18.023Z,97.96
2023-01-22T23:32:45.351Z,98.17
2023-01-22T23:35:12.311Z,97.89
2023-01-22T23:37:39.467Z,98.06
2023-01-22T23:40:07.640Z,98.06
2023-01-22T23:42:34.713Z,97.66
2023-01-22T23:45:03.072Z,97.81
2023-01-22T23:47:29.852Z,97.45
2023-01-22T23:49:57.182Z,97.64
2023-01-22T23:55:14.963Z,97.81
2023-01-22T23:57:41.855Z,97.74
